createdAt,value
2018-09-01T00:00:43.022Z,6.50
2018-09-01T00:03:11.624Z,10.60
2018-09-01T00:05:40.306Z,7.50
2018-09-01T00:08:08.906Z,5.83
2018-09-01T00:10:37.519Z,11.13
2018-09-01T00:13:06.141Z,7.17
2018-09-01T00:15:34.994Z,6.30
2018-09-01T00:18:03.599Z,7.73
2018-09-01T00:20:32.218Z,7.20
2018-09-01T00:23:00.809Z,7.40
2018-09-01T00:25:29.464Z,8.67
2018-09-01T00:27:58.081Z,6.10
2018-09-01T00:30:26.692Z,6.57
2018-09-01T00:32:55.287Z,8.73
2018-09-01T00:35:23.896Z,8.57
2018-09-01T00:37:57.556Z,5.70
2018-09-01T00:40:27.512Z,8.63
2018-09-01T00:42:57.922Z,9.83
2018-09-01T00:45:26.643Z,9.63
2018-09-01T00:47:55.258Z,7.77
2018-09-01T00:50:23.941Z,7.60
2018-09-01T00:52:52.548Z,11.50
2018-09-01T00:55:26.320Z,10.00
2018-09-01T00:57:55.080Z,5.67
2018-09-01T01:00:23.977Z,6.23
2018-09-01T01:02:52.848Z,4.83
2018-09-01T01:05:21.917Z,4.27
2018-09-01T01:07:50.540Z,10.33
2018-09-01T01:10:19.139Z,7.53
2018-09-01T01:12:48.724Z,10.50
2018-09-01T01:15:17.417Z,11.80
2018-09-01T01:17:45.974Z,5.77
2018-09-01T01:20:14.565Z,7.20
2018-09-01T01:22:43.148Z,7.40
2018-09-01T01:25:11.753Z,5.13
2018-09-01T01:27:40.385Z,3.20
2018-09-01T01:30:09.005Z,3.13
2018-09-01T01:32:37.761Z,6.60
2018-09-01T01:35:06.464Z,6.57
2018-09-01T01:37:36.816Z,9.10
2018-09-01T01:40:06.238Z,8.07
2018-09-01T01:42:36.103Z,8.23
2018-09-01T01:45:05.034Z,5.50
2018-09-01T01:47:38.848Z,7.90
2018-09-01T01:50:08.542Z,10.23
2018-09-01T01:52:37.118Z,10.03
2018-09-01T01:55:05.987Z,10.97
2018-09-01T01:57:38.692Z,7.47
2018-09-01T02:00:07.696Z,12.93
2018-09-01T02:02:36.751Z,7.30
2018-09-01T02:05:06.432Z,4.20
2018-09-01T02:07:34.994Z,6.67
2018-09-01T02:10:03.653Z,4.37
2018-09-01T02:12:32.225Z,6.10
2018-09-01T02:15:01.110Z,5.20
2018-09-01T02:17:29.757Z,3.90
2018-09-01T02:19:58.340Z,5.77
2018-09-01T02:22:26.913Z,9.90
2018-09-01T02:24:55.540Z,8.87
2018-09-01T02:27:24.132Z,8.60
2018-09-01T02:29:52.750Z,10.57
2018-09-01T02:32:21.386Z,11.73
2018-09-01T02:34:50.021Z,10.17
2018-09-01T02:37:18.621Z,6.13
2018-09-01T02:39:47.266Z,11.80
2018-09-01T02:42:15.850Z,6.57
2018-09-01T02:44:44.588Z,10.17
2018-09-01T02:47:13.222Z,12.93
2018-09-01T02:49:41.805Z,11.10
2018-09-01T02:52:10.418Z,10.80
2018-09-01T02:54:39.021Z,9.40
2018-09-01T02:57:07.835Z,18.30
2018-09-01T02:59:36.471Z,12.93
2018-09-01T03:02:05.209Z,7.70
2018-09-01T03:04:33.832Z,17.37
2018-09-01T03:07:02.578Z,11.30
2018-09-01T03:09:31.181Z,9.10
2018-09-01T03:12:00.102Z,12.50
2018-09-01T03:14:29.005Z,12.63
2018-09-01T03:16:57.917Z,10.23
2018-09-01T03:19:27.013Z,13.67
2018-09-01T03:21:55.618Z,13.43
2018-09-01T03:24:24.208Z,7.73
2018-09-01T03:26:52.822Z,11.37
2018-09-01T03:29:21.408Z,14.13
2018-09-01T03:31:50.005Z,11.10
2018-09-01T03:34:18.592Z,10.87
2018-09-01T03:36:47.195Z,14.63
2018-09-01T03:39:15.770Z,17.30
2018-09-01T03:41:44.393Z,12.33
2018-09-01T03:44:12.969Z,10.40
2018-09-01T03:46:41.593Z,10.40
2018-09-01T03:49:10.833Z,8.60
2018-09-01T03:51:39.437Z,16.93
2018-09-01T03:54:08.030Z,14.87
2018-09-01T03:56:36.643Z,10.07
2018-09-01T03:59:05.412Z,10.20
2018-09-01T04:01:34.004Z,15.40
2018-09-01T04:04:02.729Z,17.63
2018-09-01T04:06:31.342Z,12.87
2018-09-01T04:08:59.929Z,12.63
2018-09-01T04:11:28.532Z,12.30
2018-09-01T04:13:57.174Z,13.23
2018-09-01T04:16:25.776Z,12.10
2018-09-01T04:18:54.404Z,11.37
2018-09-01T04:21:23.017Z,15.23
2018-09-01T04:23:51.624Z,15.70
2018-09-01T04:26:20.257Z,16.30
2018-09-01T04:28:48.836Z,18.67
2018-09-01T04:31:17.440Z,12.40
2018-09-01T04:33:46.019Z,24.10
2018-09-01T04:36:14.638Z,28.37
2018-09-01T04:38:43.227Z,49.57
2018-09-01T04:41:11.896Z,41.87
2018-09-01T04:43:40.531Z,39.87
2018-09-01T04:46:09.137Z,58.27
2018-09-01T04:48:37.734Z,66.07
2018-09-01T04:51:06.323Z,49.23
2018-09-01T04:53:34.918Z,61.37
2018-09-01T04:56:03.498Z,64.50
2018-09-01T04:58:32.127Z,70.87
2018-09-01T05:01:00.765Z,48.93
2018-09-01T05:03:29.369Z,53.10
2018-09-01T05:05:57.945Z,89.43
2018-09-01T05:08:26.562Z,79.33
2018-09-01T05:10:55.147Z,82.67
2018-09-01T05:13:23.740Z,94.07
2018-09-01T05:15:52.309Z,61.57
2018-09-01T05:18:20.876Z,98.43
2018-09-01T05:20:49.441Z,57.27
2018-09-01T05:23:18.098Z,59.53
2018-09-01T05:25:46.761Z,63.77
2018-09-01T05:28:15.364Z,79.83
2018-09-01T05:30:43.963Z,78.53
2018-09-01T05:33:12.610Z,71.03
2018-09-01T05:35:41.231Z,52.07
2018-09-01T05:38:09.835Z,38.73
2018-09-01T05:40:38.414Z,40.23
2018-09-01T05:43:07.015Z,36.03
2018-09-01T05:45:35.598Z,41.33
2018-09-01T05:48:04.222Z,39.60
2018-09-01T05:50:32.791Z,41.13
2018-09-01T05:53:01.383Z,48.90
2018-09-01T05:55:30.046Z,60.70
2018-09-01T05:57:58.656Z,41.13
2018-09-01T06:00:27.329Z,60.47
2018-09-01T06:02:55.940Z,43.70
2018-09-01T06:05:24.519Z,68.23
2018-09-01T06:07:53.135Z,50.93
2018-09-01T06:10:21.729Z,53.97
2018-09-01T06:12:50.325Z,35.10
2018-09-01T06:15:18.906Z,43.57
2018-09-01T06:17:47.563Z,36.60
2018-09-01T06:20:16.118Z,40.70
2018-09-01T06:22:44.754Z,53.07
2018-09-01T06:25:13.354Z,46.00
2018-09-01T06:27:45.345Z,73.80
2018-09-01T06:30:16.478Z,33.37
2018-09-01T06:32:45.104Z,48.17
2018-09-01T06:35:13.694Z,43.83
2018-09-01T06:37:42.368Z,48.60
2018-09-01T06:40:10.931Z,27.30
2018-09-01T06:42:39.552Z,61.00
2018-09-01T06:45:08.167Z,55.57
2018-09-01T06:47:36.760Z,37.00
2018-09-01T06:50:05.484Z,64.03
2018-09-01T06:52:34.094Z,46.13
2018-09-01T06:55:02.677Z,61.10
2018-09-01T06:57:31.385Z,67.30
2018-09-01T07:00:00.010Z,40.17
2018-09-01T07:02:28.632Z,35.03
2018-09-01T07:04:57.229Z,32.17
2018-09-01T07:07:25.808Z,31.40
2018-09-01T07:09:54.422Z,28.63
2018-09-01T07:12:23.006Z,24.77
2018-09-01T07:14:51.610Z,26.37
2018-09-01T07:17:20.197Z,29.17
2018-09-01T07:19:48.790Z,61.57
2018-09-01T07:22:17.350Z,34.20
2018-09-01T07:24:45.975Z,35.50
2018-09-01T07:27:14.563Z,37.50
2018-09-01T07:29:43.177Z,39.10
2018-09-01T07:32:11.791Z,29.60
2018-09-01T07:34:40.463Z,24.80
2018-09-01T07:37:09.112Z,24.10
2018-09-01T07:39:37.718Z,27.80
2018-09-01T07:42:06.469Z,26.97
2018-09-01T07:44:35.125Z,26.53
2018-09-01T07:47:03.731Z,26.27
2018-09-01T07:49:32.325Z,20.67
2018-09-01T07:52:00.905Z,22.70
2018-09-01T07:54:29.554Z,24.50
2018-09-01T07:56:58.132Z,25.10
2018-09-01T07:59:26.748Z,21.93
2018-09-01T08:01:55.335Z,19.40
2018-09-01T08:04:23.932Z,21.27
2018-09-01T08:06:52.534Z,17.10
2018-09-01T08:09:21.434Z,18.10
2018-09-01T08:11:50.455Z,19.60
2018-09-01T08:14:19.150Z,18.60
2018-09-01T08:16:48.111Z,16.57
2018-09-01T08:19:16.784Z,16.43
2018-09-01T08:21:45.399Z,18.23
2018-09-01T08:24:14.025Z,18.07
2018-09-01T08:26:42.608Z,18.37
2018-09-01T08:29:11.246Z,16.00
2018-09-01T08:31:39.824Z,16.30
2018-09-01T08:34:08.454Z,18.00
2018-09-01T08:36:37.105Z,16.50
2018-09-01T08:39:07.083Z,15.13
2018-09-01T08:41:35.730Z,14.40
2018-09-01T08:44:04.387Z,15.80
2018-09-01T08:46:32.975Z,13.33
2018-09-01T08:49:01.561Z,14.33
2018-09-01T08:51:30.134Z,11.83
2018-09-01T08:53:58.735Z,11.10
2018-09-01T08:56:27.368Z,11.70
2018-09-01T08:58:55.990Z,10.73
2018-09-01T09:01:24.595Z,9.10
2018-09-01T09:03:53.170Z,10.03
2018-09-01T09:06:21.779Z,8.70
2018-09-01T09:08:50.390Z,8.80
2018-09-01T09:11:18.983Z,9.53
2018-09-01T09:13:47.605Z,7.83
2018-09-01T09:16:16.207Z,7.57
2018-09-01T09:18:44.848Z,7.63
2018-09-01T09:21:13.476Z,8.30
2018-09-01T09:23:42.067Z,7.77
2018-09-01T09:26:10.673Z,8.10
2018-09-01T09:28:39.248Z,9.10
2018-09-01T09:31:07.946Z,7.20
2018-09-01T09:33:36.542Z,6.30
2018-09-01T09:36:05.266Z,6.80
2018-09-01T09:38:33.842Z,8.47
2018-09-01T09:41:02.454Z,6.60
2018-09-01T09:43:31.035Z,7.87
2018-09-01T09:45:59.654Z,6.00
2018-09-01T09:48:28.245Z,7.43
2018-09-01T09:50:56.897Z,7.50
2018-09-01T09:53:25.543Z,4.90
2018-09-01T09:55:54.164Z,5.87
2018-09-01T09:58:22.885Z,5.47
2018-09-01T10:00:59.101Z,6.17
2018-09-01T10:03:28.387Z,5.30
2018-09-01T10:05:57.000Z,4.40
2018-09-01T10:08:25.564Z,5.40
2018-09-01T10:10:54.171Z,5.73
2018-09-01T10:13:22.739Z,3.63
2018-09-01T10:15:51.333Z,4.83
2018-09-01T10:18:19.947Z,3.63
2018-09-01T10:20:48.533Z,3.30
2018-09-01T10:23:17.145Z,3.13
2018-09-01T10:25:45.755Z,3.20
2018-09-01T10:28:14.312Z,3.30
2018-09-01T10:30:42.886Z,4.23
2018-09-01T10:33:11.467Z,4.10
2018-09-01T10:35:40.057Z,5.43
2018-09-01T10:38:09.061Z,4.33
2018-09-01T10:40:37.677Z,3.00
2018-09-01T10:43:06.448Z,3.20
2018-09-01T10:45:35.410Z,4.57
2018-09-01T10:48:04.086Z,2.50
2018-09-01T10:50:32.692Z,5.23
2018-09-01T10:53:01.265Z,2.37
2018-09-01T10:55:29.899Z,2.80
2018-09-01T10:57:58.494Z,2.63
2018-09-01T11:00:27.087Z,3.03
2018-09-01T11:02:55.689Z,3.10
2018-09-01T11:05:24.333Z,3.27
2018-09-01T11:07:52.899Z,2.67
2018-09-01T11:10:21.499Z,2.50
2018-09-01T11:12:50.120Z,2.53
2018-09-01T11:15:18.704Z,2.47
2018-09-01T11:17:47.338Z,5.10
2018-09-01T11:20:16.011Z,2.40
2018-09-01T11:22:44.627Z,2.37
2018-09-01T11:25:13.232Z,2.60
2018-09-01T11:27:41.862Z,3.20
2018-09-01T11:30:11.520Z,3.27
2018-09-01T11:32:40.122Z,2.73
2018-09-01T11:35:09.022Z,2.70
2018-09-01T11:37:37.630Z,2.57
2018-09-01T11:40:06.356Z,2.63
2018-09-01T11:42:35.024Z,2.87
2018-09-01T11:45:03.585Z,2.70
2018-09-01T11:47:32.183Z,2.30
2018-09-01T11:50:00.832Z,3.20
2018-09-01T11:52:29.401Z,3.53
2018-09-01T11:54:58.059Z,2.50
2018-09-01T11:57:26.673Z,4.10
2018-09-01T11:59:55.268Z,4.37
2018-09-01T12:02:23.895Z,2.90
2018-09-01T12:04:52.502Z,2.70
2018-09-01T12:07:21.105Z,3.03
2018-09-01T12:09:49.699Z,2.50
2018-09-01T12:12:18.283Z,2.70
2018-09-01T12:14:46.847Z,2.40
2018-09-01T12:17:15.464Z,3.73
2018-09-01T12:19:44.041Z,2.70
2018-09-01T12:22:12.716Z,2.40
2018-09-01T12:24:41.306Z,2.93
2018-09-01T12:27:09.936Z,3.57
2018-09-01T12:29:39.337Z,2.43
2018-09-01T12:32:07.938Z,3.30
2018-09-01T12:34:36.489Z,5.70
2018-09-01T12:37:05.090Z,2.50
2018-09-01T12:39:33.649Z,2.33
2018-09-01T12:42:02.277Z,2.83
2018-09-01T12:44:30.851Z,2.30
2018-09-01T12:46:59.427Z,2.63
2018-09-01T12:49:27.999Z,3.73
2018-09-01T12:51:56.580Z,2.80
2018-09-01T12:54:25.148Z,3.20
2018-09-01T12:56:53.729Z,2.53
2018-09-01T12:59:22.361Z,2.90
2018-09-01T13:01:50.960Z,2.80
2018-09-01T13:04:19.540Z,2.33
2018-09-01T13:06:48.181Z,2.37
2018-09-01T13:09:16.752Z,2.60
2018-09-01T13:11:45.344Z,2.90
2018-09-01T13:14:13.923Z,2.30
2018-09-01T13:16:42.480Z,3.23
2018-09-01T13:19:11.196Z,2.30
2018-09-01T13:21:39.765Z,3.23
2018-09-01T13:24:08.388Z,3.00
2018-09-01T13:26:36.959Z,2.43
2018-09-01T13:29:05.581Z,4.30
2018-09-01T13:31:34.160Z,2.27
2018-09-01T13:34:03.478Z,3.20
2018-09-01T13:36:32.048Z,2.60
2018-09-01T13:39:00.671Z,2.30
2018-09-01T13:41:29.273Z,2.33
2018-09-01T13:43:57.851Z,3.03
2018-09-01T13:46:26.410Z,2.13
2018-09-01T13:48:54.998Z,2.30
2018-09-01T13:51:23.564Z,2.70
2018-09-01T13:53:52.170Z,2.47
2018-09-01T13:56:20.732Z,2.77
2018-09-01T13:58:49.334Z,2.00
2018-09-01T14:01:17.897Z,2.80
2018-09-01T14:03:46.479Z,2.03
2018-09-01T14:06:15.053Z,2.40
2018-09-01T14:08:43.625Z,2.03
2018-09-01T14:11:12.216Z,6.43
2018-09-01T14:13:40.810Z,2.30
2018-09-01T14:16:09.367Z,2.47
2018-09-01T14:18:38.004Z,2.40
2018-09-01T14:21:07.079Z,3.43
2018-09-01T14:23:35.666Z,2.57
2018-09-01T14:26:04.242Z,2.60
2018-09-01T14:28:32.848Z,2.33
2018-09-01T14:31:01.442Z,2.80
2018-09-01T14:33:30.041Z,2.30
2018-09-01T14:35:58.686Z,2.60
2018-09-01T14:38:27.297Z,2.10
2018-09-01T14:40:55.892Z,2.70
2018-09-01T14:43:24.509Z,4.00
2018-09-01T14:45:53.105Z,2.00
2018-09-01T14:48:21.787Z,2.33
2018-09-01T14:50:50.305Z,2.57
2018-09-01T14:53:18.970Z,2.40
2018-09-01T14:55:47.568Z,5.00
2018-09-01T14:58:16.181Z,4.70
2018-09-01T15:00:44.772Z,2.63
2018-09-01T15:03:13.380Z,2.40
2018-09-01T15:05:41.966Z,2.80
2018-09-01T15:08:10.567Z,2.90
2018-09-01T15:10:39.145Z,3.67
2018-09-01T15:13:07.746Z,2.80
2018-09-01T15:15:36.327Z,3.80
2018-09-01T15:18:04.953Z,2.30
2018-09-01T15:20:33.590Z,2.73
2018-09-01T15:23:02.450Z,2.80
2018-09-01T15:25:31.125Z,2.40
2018-09-01T15:27:59.700Z,2.50
2018-09-01T15:30:28.300Z,5.13
2018-09-01T15:32:56.871Z,2.53
2018-09-01T15:35:25.513Z,2.63
2018-09-01T15:37:54.172Z,2.97
2018-09-01T15:40:22.791Z,3.90
2018-09-01T15:42:51.362Z,5.23
2018-09-01T15:45:19.936Z,2.90
2018-09-01T15:47:48.589Z,3.07
2018-09-01T15:50:17.180Z,4.47
2018-09-01T15:52:45.813Z,2.73
2018-09-01T15:55:14.406Z,2.73
2018-09-01T15:57:42.980Z,2.97
2018-09-01T16:00:11.589Z,3.20
2018-09-01T16:02:40.153Z,4.67
2018-09-01T16:05:08.737Z,2.80
2018-09-01T16:07:37.309Z,2.63
2018-09-01T16:10:06.157Z,2.53
2018-09-01T16:12:34.763Z,2.80
2018-09-01T16:15:03.373Z,2.80
2018-09-01T16:17:31.943Z,3.37
2018-09-01T16:20:00.566Z,4.33
2018-09-01T16:22:29.193Z,3.93
2018-09-01T16:24:57.811Z,2.77
2018-09-01T16:27:26.404Z,3.07
2018-09-01T16:29:54.990Z,3.37
2018-09-01T16:32:23.590Z,2.70
2018-09-01T16:34:52.195Z,7.67
2018-09-01T16:37:20.822Z,2.63
2018-09-01T16:39:49.416Z,3.60
2018-09-01T16:42:17.972Z,3.03
2018-09-01T16:44:46.569Z,2.90
2018-09-01T16:47:15.151Z,2.77
2018-09-01T16:49:43.776Z,2.70
2018-09-01T16:52:12.528Z,3.33
2018-09-01T16:54:41.085Z,2.80
2018-09-01T16:57:09.666Z,2.80
2018-09-01T16:59:38.277Z,2.90
2018-09-01T17:02:06.961Z,2.70
2018-09-01T17:04:35.579Z,3.27
2018-09-01T17:07:04.191Z,2.50
2018-09-01T17:09:32.882Z,5.43
2018-09-01T17:12:01.474Z,2.50
2018-09-01T17:14:30.084Z,2.70
2018-09-01T17:16:58.652Z,2.80
2018-09-01T17:19:27.261Z,3.17
2018-09-01T17:21:55.834Z,2.80
2018-09-01T17:24:24.458Z,3.00
2018-09-01T17:26:53.057Z,5.77
2018-09-01T17:29:21.637Z,3.40
2018-09-01T17:31:50.284Z,5.00
2018-09-01T17:34:18.849Z,3.13
2018-09-01T17:36:47.441Z,5.73
2018-09-01T17:39:16.041Z,2.90
2018-09-01T17:41:44.646Z,3.23
2018-09-01T17:44:13.242Z,4.73
2018-09-01T17:46:41.838Z,2.80
2018-09-01T17:49:10.425Z,3.57
2018-09-01T17:51:39.053Z,10.70
2018-09-01T17:54:07.660Z,5.70
2018-09-01T17:56:36.353Z,4.37
2018-09-01T17:59:04.951Z,4.10
2018-09-01T18:01:34.044Z,8.47
2018-09-01T18:04:02.776Z,6.10
2018-09-01T18:06:31.384Z,6.30
2018-09-01T18:08:59.961Z,3.80
2018-09-01T18:11:28.565Z,8.60
2018-09-01T18:13:57.181Z,4.70
2018-09-01T18:16:25.820Z,4.70
2018-09-01T18:18:54.401Z,3.57
2018-09-01T18:21:22.993Z,3.73
2018-09-01T18:23:51.574Z,4.37
2018-09-01T18:26:20.164Z,3.53
2018-09-01T18:28:48.722Z,3.50
2018-09-01T18:31:17.406Z,4.80
2018-09-01T18:33:45.956Z,4.20
2018-09-01T18:36:14.566Z,5.47
2018-09-01T18:38:43.154Z,2.90
2018-09-01T18:41:11.836Z,3.97
2018-09-01T18:43:40.361Z,6.33
2018-09-01T18:46:08.951Z,4.27
2018-09-01T18:48:37.524Z,3.83
2018-09-01T18:51:06.174Z,6.20
2018-09-01T18:53:34.854Z,5.80
2018-09-01T18:56:03.495Z,3.90
2018-09-01T18:58:32.071Z,6.10
2018-09-01T19:01:00.734Z,4.10
2018-09-01T19:03:29.364Z,3.63
2018-09-01T19:05:57.984Z,3.93
2018-09-01T19:08:26.562Z,5.20
2018-09-01T19:10:55.159Z,5.43
2018-09-01T19:13:23.742Z,4.93
2018-09-01T19:15:52.321Z,5.77
2018-09-01T19:18:20.895Z,4.87
2018-09-01T19:20:49.491Z,5.47
2018-09-01T19:23:18.068Z,4.40
2018-09-01T19:25:46.673Z,9.10
2018-09-01T19:28:15.255Z,6.40
2018-09-01T19:30:43.818Z,6.70
2018-09-01T19:33:12.432Z,8.70
2018-09-01T19:35:40.994Z,4.87
2018-09-01T19:38:09.598Z,4.90
2018-09-01T19:40:38.228Z,6.87
2018-09-01T19:43:06.863Z,6.17
2018-09-01T19:45:35.589Z,4.40
2018-09-01T19:48:04.070Z,7.90
2018-09-01T19:50:32.877Z,4.30
2018-09-01T19:53:01.485Z,5.33
2018-09-01T19:55:30.060Z,4.63
2018-09-01T19:57:58.648Z,4.30
2018-09-01T20:00:27.206Z,4.30
2018-09-01T20:02:55.823Z,6.10
2018-09-01T20:05:24.409Z,4.93
2018-09-01T20:07:53.013Z,5.60
2018-09-01T20:10:21.748Z,4.50
2018-09-01T20:12:51.849Z,4.83
2018-09-01T20:15:20.484Z,5.30
2018-09-01T20:17:49.063Z,5.80
2018-09-01T20:20:17.674Z,7.83
2018-09-01T20:22:46.236Z,5.63
2018-09-01T20:25:14.915Z,4.63
2018-09-01T20:27:43.538Z,4.60
2018-09-01T20:30:12.184Z,9.00
2018-09-01T20:32:40.790Z,6.30
2018-09-01T20:35:14.641Z,5.67
2018-09-01T20:37:43.292Z,4.67
2018-09-01T20:40:11.871Z,5.20
2018-09-01T20:42:40.477Z,5.80
2018-09-01T20:45:09.080Z,7.07
2018-09-01T20:47:37.769Z,5.17
2018-09-01T20:50:06.405Z,5.40
2018-09-01T20:52:35.018Z,7.50
2018-09-01T20:55:03.640Z,7.17
2018-09-01T20:57:32.244Z,9.10
2018-09-01T21:00:00.828Z,6.37
2018-09-01T21:02:29.426Z,7.13
2018-09-01T21:04:58.022Z,5.60
2018-09-01T21:07:26.636Z,5.70
2018-09-01T21:09:55.219Z,6.67
2018-09-01T21:12:23.812Z,4.87
2018-09-01T21:14:52.380Z,7.80
2018-09-01T21:17:21.003Z,6.40
2018-09-01T21:19:49.566Z,5.20
2018-09-01T21:22:18.176Z,5.03
2018-09-01T21:24:46.982Z,6.50
2018-09-01T21:27:15.601Z,5.03
2018-09-01T21:29:44.286Z,5.73
2018-09-01T21:32:12.886Z,5.90
2018-09-01T21:34:41.452Z,5.77
2018-09-01T21:37:10.035Z,6.77
2018-09-01T21:39:38.607Z,5.80
2018-09-01T21:42:07.206Z,7.90
2018-09-01T21:44:35.771Z,6.20
2018-09-01T21:47:04.411Z,5.43
2018-09-01T21:49:33.026Z,5.80
2018-09-01T21:52:01.840Z,5.80
2018-09-01T21:54:30.449Z,6.03
2018-09-01T21:56:59.084Z,9.17
2018-09-01T21:59:27.917Z,10.23
2018-09-01T22:02:01.697Z,6.27
2018-09-01T22:04:35.317Z,5.73
2018-09-01T22:07:03.901Z,6.10
2018-09-01T22:09:32.509Z,8.83
2018-09-01T22:12:01.084Z,7.03
2018-09-01T22:14:29.681Z,8.57
2018-09-01T22:16:58.264Z,7.70
2018-09-01T22:19:26.864Z,9.10
2018-09-01T22:21:55.451Z,5.73
2018-09-01T22:24:24.056Z,6.60
2018-09-01T22:26:52.622Z,8.83
2018-09-01T22:29:21.201Z,9.57
2018-09-01T22:31:49.765Z,10.63
2018-09-01T22:34:18.424Z,11.90
2018-09-01T22:36:46.986Z,9.50
2018-09-01T22:39:15.570Z,9.03
2018-09-01T22:41:44.137Z,6.93
2018-09-01T22:44:12.718Z,7.83
2018-09-01T22:46:41.302Z,8.57
2018-09-01T22:49:09.894Z,12.53
2018-09-01T22:51:38.505Z,10.30
2018-09-01T22:54:07.086Z,9.10
2018-09-01T22:56:35.653Z,6.90
2018-09-01T22:59:04.289Z,6.53
2018-09-01T23:01:32.865Z,7.60
2018-09-01T23:04:01.444Z,6.60
2018-09-01T23:06:30.003Z,7.23
2018-09-01T23:08:58.590Z,7.10
2018-09-01T23:11:27.163Z,5.13
2018-09-01T23:13:55.754Z,9.23
2018-09-01T23:16:24.324Z,8.50
2018-09-01T23:18:52.933Z,7.33
2018-09-01T23:21:21.498Z,5.10
2018-09-01T23:23:50.085Z,5.93
2018-09-01T23:26:18.656Z,5.20
2018-09-01T23:28:47.233Z,5.87
2018-09-01T23:31:15.795Z,8.50
2018-09-01T23:33:44.381Z,6.10
2018-09-01T23:36:12.944Z,10.00
2018-09-01T23:38:41.518Z,7.63
2018-09-01T23:41:10.094Z,7.60
2018-09-01T23:43:38.686Z,6.90
2018-09-01T23:46:07.364Z,7.27
2018-09-01T23:48:35.940Z,7.10
2018-09-01T23:51:04.586Z,7.57
2018-09-01T23:53:33.177Z,7.13
2018-09-01T23:56:01.742Z,8.37
2018-09-01T23:58:30.350Z,8.47
